Accueil
METAR-TAF:

METAR-TAF

Aéroports :

Aéroport international Bauerfield

Port-Vila, Éfaté, Vanuatu

latitude: 17-42S, longitude: 168-18E, altitude: 20 m

Observation

Le bulletin a été fait il y a 52 minutes, à 10:00 UTC
Vent 4 kt de nord-est
Température 21°C
Humidité 94%
Pression 1014 hPa
Visibilité 10 km ou plus
Nuages fragmentés à une hauteur de 2000 ft

METAR: NVVV 221000Z 05004KT 9999 BKN020 21/20 Q1014 RMK NIL

Heure: 21:52 (10:52 UTC)

Prévision

Le bulletin a été fait il y a 6 heures et 22 minutes, à 04:30 UTC
Prévision valable du 22 à 06 UTC au 23 à 06 UTC
Vent 9 kt de est/sud-est
Visibilité: 9000 m
Nuages épars à une hauteur de 2000 ft
Nuages fragmentés à une hauteur de 4000 ft
Nuages fragmentés à une hauteur de 1800 ft
faibles averses de pluie

TAF: NVVV 220430Z 2206/2306 12009KT 9999 SCT020 BKN040 INTER 2206/2212 9000 -SHRA BKN018

Observations et prévisions météorologiques de plus de 4000 aéroports (messages METAR et TAF).

Les stations disponibles sont représentées par des disques jaunes et rouges sur la carte.

Passer la souris dessus pour voir le nom de la station.

Cliquer dessus pour voir les observations et prévisions météorologiques.

Pour changer de carte: cliquez sur les boutons verts avec une croix noire pour zoomer, sur le bouton vert avec un tiret pour effectuer un zoom arrière, ou sur les flèches vertes pour les cartes adjacentes.


METAR-TAF: